TAM8120 SBGR-LIRF
Flight info
| Callsign | TAM8120 |
|---|---|
| Flight time | N/A |
| Altitude | 33000 |
| Route | UREMI UZ42 CXI UL340 VUPIP UL206 ARUNU/N0492F350 UL206 KODOS DCT SEROD DCT TURUP UA302 ANITI UR975 ARDAR UA854 EBATI/N0478F370 UA854 BRENA UA29 TRB UM986 ALR UG26 ZEM/N0468F380 UG26 REQIN DCT ORKUM DCT ELSAG DCT ALG DCT TINTO L5 VALMA |
| Aircraft | B77W/H-SDE1E2E3FGHIJ2J3J4J5M1RWXY/LB1D1 |
Departure
| Time | 2026-05-05 11:54 |
|---|---|
| Airport | São Paulo/Guarulhos–Governor André Franco Montoro International Airport (SBGR) |
Arrival
| Time | N/A |
|---|---|
| Airport | Rome–Fiumicino Leonardo da Vinci International Airport (LIRF) |
| Time | Latitude | Longitude | Altitude | Speed | Heading |
|---|---|---|---|---|---|
| 2026-05-05 11:32 | -23.42693 | -46.47428 | 2476 ft | 0 kts | 73° |
| 2026-05-05 11:44 | -23.42696 | -46.47438 | 2473 ft | 4 kts | 73° |
| 2026-05-05 11:44 | -23.42704 | -46.47466 | 2473 ft | 4 kts | 72° |
| 2026-05-05 11:44 | -23.42712 | -46.47494 | 2475 ft | 4 kts | 72° |
| 2026-05-05 11:45 | -23.42718 | -46.47517 | 2474 ft | 4 kts | 98° |
| 2026-05-05 11:45 | -23.42707 | -46.47537 | 2475 ft | 4 kts | 154° |
| 2026-05-05 11:45 | -23.42682 | -46.47547 | 2473 ft | 2 kts | 163° |
| 2026-05-05 11:45 | -23.42677 | -46.47549 | 2474 ft | 0 kts | 163° |
| 2026-05-05 11:47 | -23.42681 | -46.47547 | 2473 ft | 2 kts | 163° |
| 2026-05-05 11:47 | -23.42709 | -46.47538 | 2473 ft | 5 kts | 163° |
| 2026-05-05 11:48 | -23.42781 | -46.47515 | 2479 ft | 7 kts | 163° |
| 2026-05-05 11:48 | -23.42830 | -46.47499 | 2476 ft | 7 kts | 163° |
| 2026-05-05 11:48 | -23.42879 | -46.47483 | 2474 ft | 7 kts | 163° |
| 2026-05-05 11:49 | -23.42928 | -46.47492 | 2474 ft | 8 kts | 218° |
| 2026-05-05 11:49 | -23.42954 | -46.47542 | 2476 ft | 8 kts | 249° |
| 2026-05-05 11:49 | -23.42971 | -46.47598 | 2475 ft | 8 kts | 253° |
| 2026-05-05 11:49 | -23.42991 | -46.47669 | 2476 ft | 11 kts | 253° |
| 2026-05-05 11:50 | -23.43014 | -46.47760 | 2474 ft | 13 kts | 254° |
| 2026-05-05 11:50 | -23.43041 | -46.47857 | 2475 ft | 13 kts | 252° |
| 2026-05-05 11:50 | -23.43069 | -46.47954 | 2478 ft | 13 kts | 252° |
| 2026-05-05 11:50 | -23.43094 | -46.48050 | 2475 ft | 13 kts | 254° |
| 2026-05-05 11:51 | -23.43118 | -46.48141 | 2474 ft | 13 kts | 253° |
| 2026-05-05 11:51 | -23.43145 | -46.48237 | 2476 ft | 13 kts | 253° |
| 2026-05-05 11:51 | -23.43171 | -46.48334 | 2478 ft | 13 kts | 253° |
| 2026-05-05 11:51 | -23.43243 | -46.48377 | 2475 ft | 13 kts | 172° |
| 2026-05-05 11:52 | -23.43334 | -46.48354 | 2476 ft | 13 kts | 163° |
| 2026-05-05 11:52 | -23.43402 | -46.48290 | 2477 ft | 13 kts | 114° |
| 2026-05-05 11:52 | -23.43397 | -46.48218 | 2479 ft | 0 kts | 74° |
| 2026-05-05 11:52 | -23.43396 | -46.48216 | 2479 ft | 4 kts | 74° |
| 2026-05-05 11:53 | -23.43333 | -46.47970 | 2476 ft | 68 kts | 73° |
| 2026-05-05 11:53 | -23.43134 | -46.47240 | 2477 ft | 131 kts | 73° |
| 2026-05-05 11:53 | -23.42823 | -46.46094 | 2476 ft | 182 kts | 73° |
| 2026-05-05 11:53 | -23.42452 | -46.44734 | 2738 ft | 196 kts | 72° |
| 2026-05-05 11:54 | -23.42036 | -46.43296 | 3150 ft | 203 kts | 72° |
| 2026-05-05 11:54 | -23.41597 | -46.41798 | 3558 ft | 212 kts | 70° |
| 2026-05-05 11:54 | -23.41141 | -46.40248 | 4024 ft | 218 kts | 70° |
| 2026-05-05 11:54 | -23.40674 | -46.38663 | 4505 ft | 223 kts | 71° |
| 2026-05-05 11:55 | -23.40194 | -46.37030 | 4944 ft | 228 kts | 73° |
| 2026-05-05 11:55 | -23.40133 | -46.35303 | 5261 ft | 240 kts | 109° |
| 2026-05-05 11:55 | -23.40792 | -46.33548 | 6012 ft | 257 kts | 112° |
| 2026-05-05 11:55 | -23.41431 | -46.31709 | 7230 ft | 263 kts | 111° |
| 2026-05-05 11:56 | -23.42057 | -46.29813 | 8385 ft | 271 kts | 110° |
| 2026-05-05 11:56 | -23.42701 | -46.27846 | 9554 ft | 279 kts | 110° |
| 2026-05-05 11:56 | -23.43362 | -46.25831 | 10680 ft | 286 kts | 110° |
| 2026-05-05 11:56 | -23.43994 | -46.23809 | 11691 ft | 293 kts | 106° |
| 2026-05-05 11:57 | -23.44446 | -46.21621 | 12757 ft | 299 kts | 102° |
| 2026-05-05 11:57 | -23.44810 | -46.19375 | 13827 ft | 304 kts | 101° |
| 2026-05-05 11:57 | -23.45170 | -46.17078 | 14682 ft | 315 kts | 101° |
| 2026-05-05 11:57 | -23.45562 | -46.14646 | 15160 ft | 337 kts | 102° |
| 2026-05-05 11:58 | -23.45975 | -46.12144 | 15407 ft | 332 kts | 102° |
| 2026-05-05 11:58 | -23.46377 | -46.09749 | 15631 ft | 319 kts | 102° |
| 2026-05-05 11:58 | -23.46778 | -46.07390 | 15818 ft | 306 kts | 102° |
| 2026-05-05 11:58 | -23.47169 | -46.05120 | 15861 ft | 319 kts | 102° |
| 2026-05-05 11:59 | -23.47597 | -46.02655 | 15873 ft | 343 kts | 102° |
| 2026-05-05 11:59 | -23.48056 | -46.00010 | 15872 ft | 366 kts | 102° |
| 2026-05-05 11:59 | -23.48531 | -45.97258 | 15837 ft | 371 kts | 102° |
| 2026-05-05 11:59 | -23.48994 | -45.94505 | 15808 ft | 369 kts | 99° |
| 2026-05-05 12:00 | -23.48970 | -45.91721 | 15804 ft | 371 kts | 78° |
| 2026-05-05 12:00 | -23.48254 | -45.89030 | 15848 ft | 373 kts | 75° |
| 2026-05-05 12:00 | -23.47534 | -45.86293 | 15832 ft | 377 kts | 76° |
| 2026-05-05 12:00 | -23.46849 | -45.83571 | 15824 ft | 376 kts | 76° |
| 2026-05-05 12:01 | -23.46170 | -45.80824 | 15822 ft | 375 kts | 76° |
| 2026-05-05 12:01 | -23.45496 | -45.78081 | 15812 ft | 374 kts | 76° |
| 2026-05-05 12:01 | -23.44824 | -45.75346 | 15810 ft | 373 kts | 76° |
| 2026-05-05 12:01 | -23.44156 | -45.72619 | 15822 ft | 372 kts | 76° |
| 2026-05-05 12:02 | -23.43487 | -45.69899 | 15827 ft | 372 kts | 76° |
| 2026-05-05 12:02 | -23.42818 | -45.67178 | 15823 ft | 372 kts | 76° |
| 2026-05-05 12:02 | -23.42147 | -45.64456 | 15822 ft | 372 kts | 76° |
| 2026-05-05 12:02 | -23.41476 | -45.61735 | 15818 ft | 373 kts | 76° |
| 2026-05-05 12:03 | -23.40803 | -45.59008 | 15815 ft | 373 kts | 76° |
| 2026-05-05 12:03 | -23.40131 | -45.56281 | 15813 ft | 373 kts | 76° |
| 2026-05-05 12:03 | -23.39464 | -45.53585 | 15806 ft | 374 kts | 76° |
| 2026-05-05 12:03 | -23.38789 | -45.50849 | 15804 ft | 374 kts | 77° |
| 2026-05-05 12:04 | -23.38171 | -45.48099 | 15803 ft | 375 kts | 78° |
| 2026-05-05 12:04 | -23.37593 | -45.45329 | 15808 ft | 375 kts | 78° |
| 2026-05-05 12:04 | -23.37021 | -45.42558 | 15809 ft | 376 kts | 78° |
| 2026-05-05 12:04 | -23.36443 | -45.39784 | 15809 ft | 376 kts | 78° |
| 2026-05-05 12:05 | -23.35857 | -45.37011 | 15808 ft | 376 kts | 78° |
| 2026-05-05 12:05 | -23.35261 | -45.34220 | 16227 ft | 381 kts | 78° |
| 2026-05-05 12:05 | -23.34667 | -45.31445 | 16907 ft | 383 kts | 78° |
| 2026-05-05 12:05 | -23.34047 | -45.28556 | 17110 ft | 401 kts | 78° |
| 2026-05-05 12:06 | -23.33399 | -45.25541 | 17337 ft | 416 kts | 78° |
| 2026-05-05 12:06 | -23.32732 | -45.22438 | 17721 ft | 426 kts | 78° |
| 2026-05-05 12:06 | -23.32050 | -45.19279 | 18234 ft | 431 kts | 78° |
| 2026-05-05 12:06 | -23.31362 | -45.16093 | 18809 ft | 434 kts | 78° |
| 2026-05-05 12:07 | -23.30668 | -45.12883 | 19366 ft | 437 kts | 78° |
| 2026-05-05 12:07 | -23.29981 | -45.09703 | 19882 ft | 439 kts | 78° |
| 2026-05-05 12:07 | -23.29278 | -45.06454 | 20396 ft | 443 kts | 78° |
| 2026-05-05 12:07 | -23.28571 | -45.03183 | 20903 ft | 446 kts | 78° |
| 2026-05-05 12:08 | -23.27856 | -44.99886 | 21420 ft | 449 kts | 78° |
| 2026-05-05 12:08 | -23.27136 | -44.96567 | 21948 ft | 453 kts | 79° |
| 2026-05-05 12:08 | -23.26411 | -44.93224 | 22467 ft | 456 kts | 79° |
| 2026-05-05 12:08 | -23.25678 | -44.89857 | 22948 ft | 459 kts | 79° |
| 2026-05-05 12:09 | -23.24939 | -44.86464 | 23441 ft | 463 kts | 79° |
| 2026-05-05 12:09 | -23.24193 | -44.83047 | 23856 ft | 466 kts | 79° |
| 2026-05-05 12:09 | -23.23444 | -44.79610 | 24237 ft | 469 kts | 79° |
| 2026-05-05 12:09 | -23.22699 | -44.76192 | 24606 ft | 472 kts | 79° |
| 2026-05-05 12:10 | -23.21938 | -44.72712 | 25015 ft | 474 kts | 79° |
| 2026-05-05 12:10 | -23.21172 | -44.69214 | 25397 ft | 478 kts | 79° |
| 2026-05-05 12:10 | -23.20400 | -44.65692 | 25753 ft | 481 kts | 79° |
| 2026-05-05 12:10 | -23.19621 | -44.62139 | 26110 ft | 484 kts | 79° |
| 2026-05-05 12:11 | -23.18863 | -44.58561 | 26479 ft | 487 kts | 79° |
| 2026-05-05 12:11 | -23.18120 | -44.54959 | 26843 ft | 490 kts | 79° |
| 2026-05-05 12:11 | -23.17352 | -44.51341 | 27194 ft | 493 kts | 78° |
| 2026-05-05 12:11 | -23.16563 | -44.47751 | 27517 ft | 497 kts | 78° |
| 2026-05-05 12:12 | -23.15745 | -44.44084 | 27818 ft | 501 kts | 78° |
| 2026-05-05 12:12 | -23.14919 | -44.40402 | 28158 ft | 503 kts | 78° |
| 2026-05-05 12:12 | -23.14090 | -44.36696 | 28512 ft | 505 kts | 78° |
| 2026-05-05 12:12 | -23.13260 | -44.32978 | 28846 ft | 508 kts | 78° |
| 2026-05-05 12:13 | -23.12427 | -44.29236 | 29126 ft | 511 kts | 78° |
| 2026-05-05 12:13 | -23.11591 | -44.25477 | 29398 ft | 514 kts | 77° |
| 2026-05-05 12:13 | -23.10748 | -44.21690 | 29656 ft | 517 kts | 77° |
| 2026-05-05 12:13 | -23.09913 | -44.17941 | 29944 ft | 518 kts | 77° |
| 2026-05-05 12:14 | -23.09064 | -44.14133 | 30231 ft | 520 kts | 77° |
| 2026-05-05 12:14 | -23.08210 | -44.10311 | 30449 ft | 522 kts | 77° |
| 2026-05-05 12:14 | -23.07350 | -44.06466 | 30610 ft | 525 kts | 77° |
| 2026-05-05 12:14 | -23.06486 | -44.02609 | 30779 ft | 527 kts | 77° |
| 2026-05-05 12:15 | -23.05616 | -43.98730 | 30987 ft | 529 kts | 77° |
| 2026-05-05 12:15 | -23.04746 | -43.94855 | 31194 ft | 530 kts | 77° |
| 2026-05-05 12:15 | -23.03872 | -43.90967 | 31364 ft | 531 kts | 77° |
| 2026-05-05 12:15 | -23.02994 | -43.87065 | 31504 ft | 533 kts | 77° |
| 2026-05-05 12:16 | -23.02124 | -43.83202 | 31658 ft | 534 kts | 77° |
| 2026-05-05 12:16 | -23.01239 | -43.79280 | 31804 ft | 536 kts | 77° |
| 2026-05-05 12:16 | -23.00353 | -43.75354 | 31943 ft | 537 kts | 77° |
| 2026-05-05 12:16 | -22.99417 | -43.71423 | 32075 ft | 538 kts | 75° |
| 2026-05-05 12:17 | -22.96723 | -43.63821 | 32273 ft | 542 kts | 67° |
| 2026-05-05 12:17 | -22.95200 | -43.60075 | 32407 ft | 543 kts | 67° |
| 2026-05-05 12:17 | -22.93683 | -43.56332 | 32620 ft | 542 kts | 67° |
| 2026-05-05 12:18 | -22.92184 | -43.52589 | 32899 ft | 540 kts | 67° |
| 2026-05-05 12:18 | -22.90705 | -43.48852 | 33148 ft | 539 kts | 68° |
| 2026-05-05 12:18 | -22.87802 | -43.41463 | 33182 ft | 525 kts | 68° |
| 2026-05-05 12:19 | -22.86394 | -43.37887 | 33192 ft | 508 kts | 68° |
| 2026-05-05 12:19 | -22.85027 | -43.34420 | 33185 ft | 492 kts | 68° |
| 2026-05-05 12:19 | -22.83703 | -43.31058 | 33190 ft | 480 kts | 69° |
| 2026-05-05 12:19 | -22.82630 | -43.27629 | 33221 ft | 483 kts | 77° |
| 2026-05-05 12:20 | -22.81600 | -43.20445 | 33216 ft | 482 kts | 91° |
| 2026-05-05 12:20 | -22.81616 | -43.13272 | 33173 ft | 475 kts | 93° |
| 2026-05-05 12:21 | -22.81674 | -43.06142 | 33221 ft | 472 kts | 92° |
| 2026-05-05 12:21 | -22.81687 | -42.99039 | 33218 ft | 471 kts | 92° |
| 2026-05-05 12:22 | -22.81676 | -42.91938 | 33221 ft | 471 kts | 92° |
| 2026-05-05 12:22 | -22.81660 | -42.84828 | 33223 ft | 473 kts | 92° |
| 2026-05-05 12:23 | -22.81643 | -42.77736 | 33220 ft | 475 kts | 92° |
| 2026-05-05 12:23 | -22.81623 | -42.70573 | 33224 ft | 476 kts | 92° |
| 2026-05-05 12:24 | -22.80753 | -42.63481 | 33217 ft | 479 kts | 72° |
| 2026-05-05 12:24 | -22.77786 | -42.57026 | 33223 ft | 480 kts | 57° |
| 2026-05-05 12:25 | -22.74052 | -42.51010 | 33226 ft | 482 kts | 56° |
| 2026-05-05 12:25 | -22.70366 | -42.44990 | 33232 ft | 483 kts | 57° |
| 2026-05-05 12:26 | -22.66697 | -42.38891 | 33236 ft | 484 kts | 57° |
| 2026-05-05 12:26 | -22.63030 | -42.32784 | 33231 ft | 483 kts | 57° |
| 2026-05-05 12:27 | -22.59251 | -42.26774 | 33228 ft | 482 kts | 51° |
| 2026-05-05 12:27 | -22.54651 | -42.21589 | 33226 ft | 480 kts | 39° |
| 2026-05-05 12:28 | -22.49503 | -42.17020 | 33240 ft | 478 kts | 38° |
| 2026-05-05 12:28 | -22.44361 | -42.12461 | 33247 ft | 478 kts | 38° |
| 2026-05-05 12:29 | -22.39243 | -42.07878 | 33233 ft | 478 kts | 38° |
| 2026-05-05 12:29 | -22.34163 | -42.03315 | 33223 ft | 478 kts | 39° |
| 2026-05-05 12:30 | -22.29051 | -41.98725 | 33227 ft | 478 kts | 38° |
| 2026-05-05 12:30 | -22.23938 | -41.94144 | 33220 ft | 478 kts | 38° |
| 2026-05-05 12:31 | -22.18827 | -41.89567 | 33229 ft | 477 kts | 38° |
| 2026-05-05 12:31 | -22.13724 | -41.85003 | 33249 ft | 476 kts | 38° |
| 2026-05-05 12:32 | -22.08666 | -41.80474 | 33251 ft | 476 kts | 38° |
| 2026-05-05 12:32 | -22.03573 | -41.75908 | 33238 ft | 477 kts | 38° |
| 2026-05-05 12:33 | -21.98472 | -41.71339 | 33255 ft | 477 kts | 38° |
| 2026-05-05 12:33 | -21.93366 | -41.66776 | 33252 ft | 477 kts | 38° |
| 2026-05-05 12:34 | -21.88249 | -41.62221 | 33253 ft | 477 kts | 38° |
| 2026-05-05 12:34 | -21.83163 | -41.57699 | 33245 ft | 478 kts | 38° |
| 2026-05-05 12:35 | -21.78038 | -41.53143 | 33243 ft | 478 kts | 38° |
| 2026-05-05 12:35 | -21.72914 | -41.48591 | 33238 ft | 477 kts | 38° |
| 2026-05-05 12:36 | -21.67798 | -41.44049 | 33243 ft | 477 kts | 38° |
| 2026-05-05 12:36 | -21.62680 | -41.39516 | 33239 ft | 476 kts | 38° |
| 2026-05-05 12:37 | -21.57591 | -41.35031 | 33256 ft | 476 kts | 38° |
| 2026-05-05 12:37 | -21.52466 | -41.30515 | 33238 ft | 476 kts | 38° |
| 2026-05-05 12:38 | -21.47342 | -41.25998 | 33236 ft | 477 kts | 38° |
| 2026-05-05 12:38 | -21.42226 | -41.21468 | 33262 ft | 477 kts | 38° |
| 2026-05-05 12:39 | -21.37139 | -41.16963 | 33235 ft | 478 kts | 38° |
| 2026-05-05 12:39 | -21.32012 | -41.12430 | 33256 ft | 478 kts | 38° |
| 2026-05-05 12:40 | -21.26872 | -41.07901 | 33239 ft | 478 kts | 38° |
| 2026-05-05 12:40 | -21.21730 | -41.03380 | 33239 ft | 478 kts | 38° |
| 2026-05-05 12:41 | -21.16617 | -40.98885 | 33246 ft | 478 kts | 37° |
| 2026-05-05 12:41 | -21.11472 | -40.94365 | 33255 ft | 478 kts | 37° |
| 2026-05-05 12:42 | -21.06322 | -40.89845 | 33254 ft | 479 kts | 37° |
| 2026-05-05 12:42 | -21.01163 | -40.85321 | 33250 ft | 480 kts | 37° |
| 2026-05-05 12:43 | -20.96001 | -40.80798 | 33234 ft | 480 kts | 37° |
| 2026-05-05 12:43 | -20.90873 | -40.76309 | 33248 ft | 480 kts | 37° |
| 2026-05-05 12:44 | -20.85702 | -40.71785 | 33254 ft | 480 kts | 37° |
| 2026-05-05 12:44 | -20.80516 | -40.67285 | 33264 ft | 480 kts | 34° |
| 2026-05-05 12:45 | -20.75005 | -40.63279 | 33242 ft | 479 kts | 30° |
| 2026-05-05 12:45 | -20.69434 | -40.59364 | 33258 ft | 479 kts | 31° |
| 2026-05-05 12:46 | -20.63909 | -40.55451 | 33253 ft | 480 kts | 31° |
| 2026-05-05 12:46 | -20.58352 | -40.51493 | 33256 ft | 481 kts | 31° |
| 2026-05-05 12:47 | -20.52790 | -40.47530 | 33248 ft | 480 kts | 31° |
| 2026-05-05 12:47 | -20.47230 | -40.43573 | 33257 ft | 480 kts | 31° |
| 2026-05-05 12:48 | -20.41711 | -40.39651 | 33249 ft | 480 kts | 31° |
| 2026-05-05 12:48 | -20.36158 | -40.35708 | 33247 ft | 480 kts | 31° |
| 2026-05-05 12:49 | -20.30604 | -40.31766 | 33242 ft | 479 kts | 30° |
| 2026-05-05 12:49 | -20.25052 | -40.27832 | 33214 ft | 479 kts | 30° |
| 2026-05-05 12:50 | -20.19524 | -40.23970 | 33213 ft | 480 kts | 30° |
| 2026-05-05 12:50 | -20.13936 | -40.20089 | 33219 ft | 480 kts | 30° |
| 2026-05-05 12:51 | -20.08351 | -40.16205 | 33224 ft | 479 kts | 30° |
| 2026-05-05 12:51 | -20.02772 | -40.12324 | 33230 ft | 479 kts | 30° |
| 2026-05-05 12:52 | -19.97190 | -40.08443 | 33235 ft | 479 kts | 30° |
| 2026-05-05 12:52 | -19.91650 | -40.04595 | 33236 ft | 478 kts | 30° |
| 2026-05-05 12:53 | -19.86079 | -40.00729 | 33229 ft | 478 kts | 30° |
| 2026-05-05 12:53 | -19.80506 | -39.96864 | 33226 ft | 478 kts | 30° |
| 2026-05-05 12:54 | -19.72161 | -39.91082 | 33228 ft | 477 kts | 30° |
| 2026-05-05 12:55 | -19.66638 | -39.87251 | 33220 ft | 477 kts | 30° |
| 2026-05-05 12:55 | -19.61098 | -39.83371 | 33227 ft | 477 kts | 30° |
| 2026-05-05 12:56 | -19.55559 | -39.79487 | 33232 ft | 478 kts | 30° |
| 2026-05-05 12:56 | -19.50008 | -39.75601 | 33225 ft | 478 kts | 30° |
| 2026-05-05 12:57 | -19.44447 | -39.71714 | 33215 ft | 479 kts | 29° |
| 2026-05-05 12:57 | -19.38918 | -39.67854 | 33227 ft | 480 kts | 29° |
| 2026-05-05 12:58 | -19.33340 | -39.63962 | 33218 ft | 480 kts | 29° |
| 2026-05-05 12:58 | -19.27755 | -39.60069 | 33219 ft | 481 kts | 29° |
| 2026-05-05 12:59 | -19.22166 | -39.56176 | 33216 ft | 480 kts | 29° |
| 2026-05-05 12:59 | -19.16589 | -39.52294 | 33210 ft | 480 kts | 29° |
| 2026-05-05 13:00 | -19.08273 | -39.46513 | 33209 ft | 478 kts | 29° |
| 2026-05-05 13:01 | -18.97185 | -39.38814 | 33206 ft | 475 kts | 29° |
| 2026-05-05 13:01 | -18.91702 | -39.35012 | 33215 ft | 474 kts | 29° |
| 2026-05-05 13:02 | -18.86187 | -39.31191 | 33210 ft | 474 kts | 29° |
| 2026-05-05 13:02 | -18.80675 | -39.27376 | 33191 ft | 474 kts | 28° |
| 2026-05-05 13:03 | -18.75164 | -39.23563 | 33210 ft | 473 kts | 28° |
| 2026-05-05 13:03 | -18.69658 | -39.19758 | 33206 ft | 473 kts | 28° |
| 2026-05-05 13:04 | -18.64186 | -39.15979 | 33207 ft | 473 kts | 28° |
| 2026-05-05 13:04 | -18.58675 | -39.12175 | 33205 ft | 474 kts | 28° |
| 2026-05-05 13:05 | -18.53165 | -39.08374 | 33209 ft | 473 kts | 28° |
| 2026-05-05 13:05 | -18.47661 | -39.04580 | 33200 ft | 473 kts | 28° |
| 2026-05-05 13:06 | -18.42199 | -39.00818 | 33196 ft | 472 kts | 28° |
| 2026-05-05 13:06 | -18.36737 | -38.96996 | 33198 ft | 471 kts | 29° |
| 2026-05-05 13:07 | -18.31296 | -38.93159 | 33194 ft | 470 kts | 29° |
| 2026-05-05 13:07 | -18.25871 | -38.89339 | 33189 ft | 469 kts | 29° |
| 2026-05-05 13:08 | -18.20487 | -38.85558 | 33191 ft | 468 kts | 29° |
| 2026-05-05 13:08 | -18.15076 | -38.81764 | 33194 ft | 467 kts | 29° |
| 2026-05-05 13:09 | -18.09671 | -38.77977 | 33190 ft | 467 kts | 29° |
| 2026-05-05 13:09 | -18.04266 | -38.74194 | 33194 ft | 466 kts | 29° |
| 2026-05-05 13:10 | -17.98864 | -38.70414 | 33193 ft | 467 kts | 29° |
| 2026-05-05 13:10 | -17.93495 | -38.66661 | 33194 ft | 467 kts | 29° |
| 2026-05-05 13:11 | -17.88081 | -38.62878 | 33175 ft | 467 kts | 30° |
| 2026-05-05 13:11 | -17.82667 | -38.59099 | 33173 ft | 467 kts | 30° |
| 2026-05-05 13:12 | -17.77260 | -38.55326 | 33193 ft | 466 kts | 30° |
| 2026-05-05 13:12 | -17.71896 | -38.51587 | 33174 ft | 466 kts | 30° |
| 2026-05-05 13:13 | -17.66504 | -38.47831 | 33167 ft | 465 kts | 30° |
| 2026-05-05 13:13 | -17.61123 | -38.44086 | 33179 ft | 464 kts | 30° |
| 2026-05-05 13:14 | -17.55747 | -38.40346 | 33180 ft | 464 kts | 29° |
| 2026-05-05 13:14 | -17.50371 | -38.36610 | 33172 ft | 463 kts | 29° |
| 2026-05-05 13:15 | -17.45035 | -38.32905 | 33172 ft | 464 kts | 29° |
| 2026-05-05 13:15 | -17.39658 | -38.29173 | 33179 ft | 464 kts | 30° |
| 2026-05-05 13:16 | -17.34274 | -38.25439 | 33172 ft | 464 kts | 30° |
| 2026-05-05 13:16 | -17.28883 | -38.21703 | 33178 ft | 465 kts | 30° |
| 2026-05-05 13:17 | -17.25312 | -38.19229 | 33162 ft | 465 kts | 30° |